Flight Track Log - Related Links

Times and Time Zones

All times are in EDT time to prevent confusion due to time zone crossing. See the RPA3321 flight status page for this flight to view local times or setup timezone preferences in your user account.

Time Position Orientation Groundspeed Altitude Reporting Facility
EDT Latitude Longitude Course Direction KTS MPH feet Rate Location/Type
Wed 05:40:55 AM 42.7483 -73.8228 169° South 132 152 1,500  Level Boston Center
Wed 05:41:13 AM 42.7461 -73.8367 258° West 134 154 2,200 2,348 Climbing Boston Center
Wed 05:42:27 AM 42.7744 -73.9081 298° West 206 237 5,100 3,090 Climbing Boston Center
Wed 05:43:00 AM 42.5078 -74.0162 171° South  Level Estimated
Wed 05:43:27 AM 42.7964 -73.9822 292° West 216 249 9,100  Level Boston Center
Wed 05:44:00 AM 42.4273 -74.0872 180° South  Level Estimated
Wed 05:44:27 AM 42.7931 -74.0725 267° West 221 254 12,900  Level Boston Center
Wed 05:45:00 AM 42.3467 -74.1581 170° South  Level Estimated
Wed 05:45:27 AM 42.7094 -74.0931 190° South 204 235 16,000  Level Boston Center
Wed 05:46:00 AM 42.2661 -74.2287 169° South  Level Estimated
Wed 05:46:27 AM 42.6139 -74.0567 164° South 286 329 17,900  Level Boston Center
Wed 05:47:27 AM 42.5086 -73.9975 157° South 345 397 21,000 2,750 Climbing Boston Center
Wed 05:48:27 AM 42.4092 -73.9444 158° South 388 447 23,400 2,300 Climbing Boston Center
Wed 05:49:27 AM 42.2767 -73.8739 158° South 422 486 25,600 1,900 Climbing Boston Center
Wed 05:50:27 AM 42.1586 -73.8097 158° South 442 509 27,200 1,550 Climbing Boston Center
Wed 05:51:27 AM 42.0344 -73.7456 159° South 465 535 28,700 1,400 Climbing Boston Center
Wed 05:52:27 AM 41.9111 -73.7708 189° South 446 513 30,000 1,250 Climbing Boston Center
Wed 05:53:27 AM 41.7978 -73.8353 203° Southwest 432 497 31,200 615 Climbing Boston Center
Wed 05:55:42 AM 41.5492 -73.9756 203° Southwest 447 514 32,000 246 Climbing New York Center
Wed 05:56:42 AM 41.4456 -74.0369 204° Southwest 422 486 32,000  Level New York Center
Wed 05:57:41 AM 41.3397 -74.0981 203° Southwest 422 486 32,000  Level New York Center
Wed 05:58:42 AM 41.2275 -74.1614 203° Southwest 422 486 32,000 -149 Level New York Center
Wed 05:59:42 AM 41.1197 -74.2167 201° Southwest 422 486 31,700 -694 Descending New York Center
Wed 06:00:43 AM 41.0117 -74.2744 202° Southwest 422 486 30,600 -1,059 Descending New York Center
Wed 06:01:41 AM 40.9036 -74.3347 203° Southwest 422 486 29,600 -1,008 Descending New York Center
Wed 06:02:42 AM 40.7997 -74.3978 205° Southwest 422 486 28,600 -787 Descending New York Center
Wed 06:03:43 AM 40.7275 -74.5033 228° Southwest 398 458 28,000 -300 Descending New York Center
Wed 06:04:42 AM 40.6617 -74.6119 231° Southwest 393 452 28,000  Level New York Center
Wed 06:05:43 AM 40.5933 -74.7283 232° Southwest 393 452 28,000  Level New York Center
Wed 06:06:42 AM 40.5208 -74.8308 227° Southwest 399 459 28,000  Level New York Center
Wed 06:07:40 AM 40.4467 -74.9328 226° Southwest 393 452 28,000  Level New York Center
Wed 06:08:42 AM 40.3742 -75.0372 228° Southwest 387 445 28,000 -732 Level New York Center
Wed 06:09:43 AM 40.3036 -75.1392 228° Southwest 392 451 26,500 -1,765 Descending New York Center
Wed 06:10:41 AM 40.2311 -75.2406 227° Southwest 392 451 24,500 -1,983 Descending New York Center
Wed 06:11:41 AM 40.1606 -75.3392 227° Southwest 386 444 22,600 -1,230 Descending New York Center
Wed 06:12:43 AM 40.0944 -75.4325 227° Southwest 375 432 22,000 -300 Descending New York Center
Wed 06:13:41 AM 40.0306 -75.5178 226° Southwest 370 426 22,000  Level New York Center
Wed 06:14:41 AM 39.9642 -75.6136 228° Southwest 365 420 22,000  Level New York Center
Wed 06:15:42 AM 39.8994 -75.7144 230° Southwest 365 420 22,000  Level New York Center
Wed 06:16:43 AM 39.8344 -75.8208 232° Southwest 367 422 22,000 -967 Level New York Center
Wed 06:18:42 AM 39.6833 -76.0500 229° Southwest 383 441 19,100 -1,699 Descending Potomac TRACON
Wed 06:19:36 AM 39.6167 -76.1500 229° Southwest 374 430 17,100 -2,167 Descending Potomac TRACON
Wed 06:20:30 AM 39.5667 -76.2333 232° Southwest 360 414 15,200 -1,950 Descending Potomac TRACON
Wed 06:21:36 AM 39.5000 -76.3500 234° Southwest 352 405 13,200 -1,850 Descending Potomac TRACON
Wed 06:22:30 AM 39.4333 -76.4333 224° Southwest 342 394 11,500 -1,761 Descending Potomac TRACON
Wed 06:23:25 AM 39.3667 -76.4833 210° Southwest 355 409 10,000 -833 Descending Potomac TRACON
Wed 06:24:18 AM 39.3000 -76.5500 218° Southwest 353 406 10,000  Level Potomac TRACON
Wed 06:25:19 AM 39.2167 -76.6167 212° Southwest 332 382 10,000  Level Potomac TRACON
Wed 06:26:13 AM 39.1500 -76.6833 218° Southwest 285 328 10,000 -53 Level Potomac TRACON
Wed 06:27:13 AM 39.1000 -76.7500 226° Southwest 278 320 9,900 -947 Descending Potomac TRACON
Wed 06:28:07 AM 39.0500 -76.8000 218° Southwest 278 320 8,200 -1,900 Descending Potomac TRACON
Wed 06:29:13 AM 38.9833 -76.8833 224° Southwest 270 311 6,100 -1,100 Descending Potomac TRACON
Wed 06:30:07 AM 38.9333 -76.9333 218° Southwest 274 315 6,000 -263 Descending Potomac TRACON
Wed 06:31:07 AM 38.8500 -76.9500 189° South 299 344 5,600 -1,200 Descending Potomac TRACON
Wed 06:32:07 AM 38.7833 -76.9500 180° South 291 335 3,600 -1,526 Descending Potomac TRACON
Wed 06:33:01 AM 38.7000 -76.9500 180° South 269 310 2,700 -632 Descending Potomac TRACON
Wed 06:34:01 AM 38.7000 -77.0000 270° West 190 219 2,400 -300 Descending Potomac TRACON

Login

Don't have an account? Register now (free) for customized features, flight alerts, and more!